Zoar, Ohio
Current Conditions -  °F | °C
As of 12:53 AM on Tuesday 27 Jan 2015 (Local Time) from KPHD Reporting Station
Light Snow Light Snow  
Wind Chill: 13°   Ceiling: 2300
Heat Index: 21°   Visibility: 5mi
Dew Point: 15°   Wind: 6mph
Humidity: 78%   Direction: 300°WNW
Pressure: 29.9"   Gusts: NA
Location:  40.61°N, 81.42°W
Report Text: KPHD 270553Z AUTO 30005KT 5SM -SN FEW017 OVC023 M06/M09 A2990 RMK AO2 SLP137 P0000 60000 T10611094 11056 21067 58003
Loading
Personal Weather Stations






























Interactive Weather Map New forecast layout! Learn more

10-Day Weather Forecast

Advertisements
Track Severe Weather on mobile